Weather observations for the past three days for
Hastings, Hastings Municipal Airport
Imperial (Metric)
Date Time (cdt) Wind (mph) Vis. (mi.) Weather Sky Cond. Temperature (ºF) Relative Humidity Wind Chill (°F) Heat Index (°F) Pressure Precipitation (in)
Air Dwpt 6 hour altimeter (in) sea level (mb) 1 hr 3 hr 6 hr
Max. Min.
02 16:53 W 10 G 18 10.00 Fair CLR 69.1 26.1 20% 30.03 1017.0
02 15:53 W 10 G 21 10.00 Fair CLR 66.9 23 19% 30.06 1018.2
02 14:53 Calm 10.00 Fair CLR 64.9 23 20% 30.09 1019.1
02 13:53 W 12 G 17 10.00 Fair CLR 64 25 23% 30.11 1019.9
02 12:53 W 7 10.00 Fair CLR 61 26.1 62.1 34 26% 30.14 1021.0
02 11:53 W 8 G 16 10.00 Fair CLR 59 26.1 28% 30.17 1021.9
02 10:53 Vrbl 3 10.00 Fair CLR 57 26.1 30% 30.18 1022.3
02 09:53 W 9 10.00 Fair CLR 54 28.9 38% 30.19 1022.6
02 08:53 SW 6 10.00 Fair CLR 48 30.9 52% 46 30.19 1022.8
02 07:53 W 5 10.00 Fair CLR 39 28 65% 36 30.19 1022.8
02 06:53 SW 5 10.00 Fair CLR 35.1 26.1 39.9 33.1 70% 32 30.18 1022.5
02 05:53 SW 6 10.00 Fair CLR 35.1 27 72% 31 30.18 1022.4
02 04:53 W 5 10.00 Fair CLR 35.1 28.9 78% 32 30.18 1022.5
02 03:53 Calm 10.00 Fair CLR 34 27 76% 30.18 1022.6
02 02:53 W 3 10.00 Fair CLR 37 28.9 73% 30.18 1022.4
02 01:53 Calm 10.00 Fair CLR 37 27 67% 30.19 1022.8
02 00:53 NE 3 10.00 Fair CLR 39 28 57.9 37.9 65% 30.18 1022.3
01 23:53 NE 3 10.00 Fair CLR 41 28 60% 30.16 1021.8
01 22:53 NE 5 10.00 Fair CLR 44.1 28 53% 42 30.15 1021.5
01 21:53 NE 5 10.00 Fair CLR 45 30 56% 43 30.13 1020.9
01 20:53 N 6 10.00 Fair CLR 48 30.9 52% 46 30.1 1020.0
01 19:53 N 8 10.00 Fair CLR 54 30.9 42% 30.08 1019.3
01 18:53 N 13 G 22 10.00 Fair CLR 57.9 28.9 61 55 33% 30.07 1018.9
01 17:53 N 12 G 22 10.00 Fair CLR 60.1 28.9 31% 30.06 1018.4
01 16:53 N 13 G 25 10.00 A Few Clouds FEW070 61 30 31% 30.08 1018.8
01 15:53 N 13 G 22 10.00 Partly Cloudy FEW080 SCT095 59 30 33% 30.09 1019.1
01 14:53 Vrbl 6 10.00 Fair CLR 57.9 28.9 33% 30.1 1019.6
01 13:53 NE 3 10.00 Fair CLR 57 30.9 37% 30.11 1020.0
01 12:53 Vrbl 3 10.00 Fair CLR 55.9 33.1 55.9 35.1 42% 30.12 1020.5
01 11:53 N 9 10.00 Fair CLR 54 33.1 45% 30.13 1020.9
01 10:53 N 5 10.00 Overcast FEW080 OVC100 50 32 50% 49 30.13 1021.0
01 09:53 N 7 10.00 Mostly Cloudy BKN095 46.9 32 56% 44 30.13 1020.8
01 08:53 N 10 10.00 Overcast OVC100 44.1 32 63% 39 30.12 1020.8
01 07:53 NW 9 10.00 Fair CLR 39.9 32 73% 34 30.12 1020.4
01 06:53 N 8 10.00 Fair CLR 35.1 30.9 41 35.1 85% 29 30.11 1020.4
01 05:53 W 7 10.00 Fair CLR 36 30.9 82% 31 30.1 1019.6
01 04:53 SW 5 10.00 Fair CLR 37 30.9 79% 34 30.09 1019.5
01 03:53 SW 5 10.00 Fair CLR 37.9 30.9 76% 35 30.1 1019.5
01 02:53 SW 7 10.00 Fair CLR 37 30.9 79% 32 30.11 1020.0
01 01:53 SW 3 10.00 Fair CLR 37.9 32 79% 30.12 1020.3
01 00:53 SW 3 10.00 Fair CLR 37.9 32 55 37.9 79% 30.13 1020.7
30 23:53 S 6 10.00 Fair CLR 42.1 33.1 71% 39 30.13 1020.6
30 22:53 SW 3 10.00 Fair CLR 42.1 34 73% 30.14 1021.0
30 21:53 Calm 10.00 Fair CLR 44.1 33.1 65% 30.13 1020.8
30 20:53 N 5 10.00 Fair CLR 45 33.1 63% 43 30.12 1020.3
30 19:53 N 10 10.00 Fair CLR 52 33.1 49% 30.1 1019.7
30 18:53 N 15 G 24 10.00 Fair CLR 55 35.1 60.1 55 47% 30.09 1019.3
30 17:53 N 16 G 22 10.00 Mostly Cloudy SCT060 BKN080 57 36 45% 30.08 1018.9
30 16:53 N 13 G 21 10.00 A Few Clouds FEW050 FEW075 57.9 34 41% 30.08 1018.6
30 15:53 N 10 G 21 10.00 Fair CLR 59 35.1 41% 30.09 1019.0
30 14:53 N 13 10.00 Mostly Cloudy SCT060 BKN080 57.9 33.1 39% 30.1 1019.3
30 13:53 N 12 G 23 10.00 Partly Cloudy SCT060 59 32 36% 30.11 1019.7
30 12:53 N 14 G 21 10.00 Fair CLR 57 34 57 43 42% 30.12 1020.1
30 11:53 N 15 G 25 10.00 Mostly Cloudy BKN110 55.9 32 40% 30.14 1020.6
30 10:53 N 16 G 25 10.00 Fair CLR 54 39.9 59% 30.14 1020.6
30 09:53 N 18 10.00 Fair CLR 51.1 39.9 66% 30.13 1020.2
30 08:53 N 16 10.00 Fair CLR 48 39.9 74% 42 30.12 1020.2
30 07:53 N 12 10.00 Fair CLR 45 39 80% 40 30.11 1019.9
30 06:53 N 12 10.00 Fair CLR 43 37.9 48.9 42.1 82% 37 30.09 1019.0
30 05:53 NW 8 10.00 Fair CLR 43 39.9 89% 39 30.09 1018.9
30 04:53 NW 10 10.00 Fair CLR 45 41 86% 40 30.08 1018.8
30 03:53 W 5 10.00 Fair CLR 45 41 86% 43 30.07 1018.4
30 02:53 SW 3 10.00 A Few Clouds FEW080 46 42.1 86% 30.07 1018.2
30 01:53 Calm 10.00 A Few Clouds FEW070 44.1 41 89% 30.09 1019.2
30 00:53 SW 5 10.00 Fair CLR 48.9 44.1 61 48 83% 48 30.09 1019.2
29 23:53 W 5 10.00 Overcast BKN100 OVC120 51.1 45 80% 30.08 1018.9
29 22:53 W 7 10.00 Mostly Cloudy SCT070 BKN090 BKN120 51.1 43 74% 30.1 1019.6
29 21:53 SW 6 10.00 Mostly Cloudy BKN110 54 41 62% 30.07 1018.5
29 20:53 W 9 10.00 Overcast FEW070 BKN090 OVC110 55 42.1 62% 30.06 1018.1
29 19:53 NW 16 10.00 Overcast OVC065 57 39 51% 30.05 1018.2
29 18:53 SW 6 10.00 Partly Cloudy SCT110 61 35.1 63 54 38% 30.04 1017.6
29 17:53 S 5 10.00 Fair CLR 62.1 36 38% 30.04 1017.7
Date Time (cdt) Wind (mph) Vis. (mi.) Weather Sky Cond. Air Dwpt Max. Min. Relative Humidity Wind Chill (°F) Heat Index (°F) altimeter (in) sea level (mb) 1 hr 3 hr 6 hr
6 hour
Temperature (ºF) Pressure Precipitation (in)